sensor_id;sensor_type;location;lat;lon;timestamp;pressure;altitude;pressure_sealevel;temperature;humidity
7297;BME280;40758;54.038;11.684;2022-08-03T00:01:00;101243.00;;;19.71;73.25
7297;BME280;40758;54.038;11.684;2022-08-03T00:03:29;101246.09;;;19.68;74.07
7297;BME280;40758;54.038;11.684;2022-08-03T00:06:01;101245.41;;;19.66;73.96
7297;BME280;40758;54.038;11.684;2022-08-03T00:08:31;101240.97;;;19.65;74.25
7297;BME280;40758;54.038;11.684;2022-08-03T00:11:06;101235.03;;;19.62;75.05
7297;BME280;40758;54.038;11.684;2022-08-03T00:13:36;101237.75;;;19.62;74.65
7297;BME280;40758;54.038;11.684;2022-08-03T00:16:07;101237.22;;;19.58;74.86
7297;BME280;40758;54.038;11.684;2022-08-03T00:18:54;101233.00;;;19.56;76.68
7297;BME280;40758;54.038;11.684;2022-08-03T00:21:23;101243.91;;;19.56;76.03
7297;BME280;40758;54.038;11.684;2022-08-03T00:23:53;101237.94;;;19.52;77.50
7297;BME280;40758;54.038;11.684;2022-08-03T00:26:22;101234.34;;;19.44;78.29
7297;BME280;40758;54.038;11.684;2022-08-03T00:28:51;101230.44;;;19.46;75.01
7297;BME280;40758;54.038;11.684;2022-08-03T00:31:21;101231.63;;;19.52;75.02
7297;BME280;40758;54.038;11.684;2022-08-03T00:34:13;101229.41;;;19.55;74.73
7297;BME280;40758;54.038;11.684;2022-08-03T00:37:03;101235.88;;;19.54;78.64
7297;BME280;40758;54.038;11.684;2022-08-03T00:39:32;101227.38;;;19.49;79.40
7297;BME280;40758;54.038;11.684;2022-08-03T00:42:02;101225.31;;;19.51;78.02
7297;BME280;40758;54.038;11.684;2022-08-03T00:44:38;101227.88;;;19.53;76.94
7297;BME280;40758;54.038;11.684;2022-08-03T00:47:11;101226.69;;;19.55;78.59
7297;BME280;40758;54.038;11.684;2022-08-03T00:49:43;101225.69;;;19.48;80.91
7297;BME280;40758;54.038;11.684;2022-08-03T00:52:14;101227.19;;;19.43;81.90
7297;BME280;40758;54.038;11.684;2022-08-03T00:54:46;101226.50;;;19.32;84.55
7297;BME280;40758;54.038;11.684;2022-08-03T00:57:16;101225.84;;;19.22;86.87
7297;BME280;40758;54.038;11.684;2022-08-03T00:59:45;101219.38;;;19.07;86.14
7297;BME280;40758;54.038;11.684;2022-08-03T01:02:16;101219.72;;;18.96;87.11
7297;BME280;40758;54.038;11.684;2022-08-03T01:04:45;101210.72;;;18.79;89.22
7297;BME280;40758;54.038;11.684;2022-08-03T01:07:24;101209.50;;;18.57;90.77
7297;BME280;40758;54.038;11.684;2022-08-03T01:10:12;101205.50;;;18.36;92.70
7297;BME280;40758;54.038;11.684;2022-08-03T01:12:56;101208.06;;;18.37;85.14
7297;BME280;40758;54.038;11.684;2022-08-03T01:15:36;101200.22;;;18.26;85.66
7297;BME280;40758;54.038;11.684;2022-08-03T01:18:20;101210.88;;;18.11;89.90
7297;BME280;40758;54.038;11.684;2022-08-03T01:20:55;101205.84;;;17.91;91.97
7297;BME280;40758;54.038;11.684;2022-08-03T01:23:51;101204.44;;;17.70;94.53
7297;BME280;40758;54.038;11.684;2022-08-03T01:26:58;101201.09;;;17.59;96.06
7297;BME280;40758;54.038;11.684;2022-08-03T01:30:01;101194.56;;;17.44;97.46
7297;BME280;40758;54.038;11.684;2022-08-03T01:32:45;101193.81;;;17.33;99.57
7297;BME280;40758;54.038;11.684;2022-08-03T01:35:35;101191.19;;;17.24;100.00
7297;BME280;40758;54.038;11.684;2022-08-03T01:38:13;101187.25;;;17.18;100.00
7297;BME280;40758;54.038;11.684;2022-08-03T01:40:45;101190.75;;;17.11;100.00
7297;BME280;40758;54.038;11.684;2022-08-03T01:43:18;101189.59;;;17.13;99.28
7297;BME280;40758;54.038;11.684;2022-08-03T01:46:11;101181.19;;;17.24;94.58
7297;BME280;40758;54.038;11.684;2022-08-03T01:48:43;101191.09;;;17.33;90.23
7297;BME280;40758;54.038;11.684;2022-08-03T01:51:20;101182.47;;;17.38;88.67
7297;BME280;40758;54.038;11.684;2022-08-03T01:54:16;101179.25;;;17.43;86.45
7297;BME280;40758;54.038;11.684;2022-08-03T01:56:53;101182.69;;;17.45;88.75
7297;BME280;40758;54.038;11.684;2022-08-03T01:59:25;101183.31;;;17.38;92.49
7297;BME280;40758;54.038;11.684;2022-08-03T02:02:00;101180.53;;;17.30;93.64
7297;BME280;40758;54.038;11.684;2022-08-03T02:04:53;101180.19;;;17.25;91.59
7297;BME280;40758;54.038;11.684;2022-08-03T02:07:26;101172.34;;;17.22;90.17
7297;BME280;40758;54.038;11.684;2022-08-03T02:09:59;101181.13;;;17.16;90.00
7297;BME280;40758;54.038;11.684;2022-08-03T02:12:33;101178.09;;;17.19;89.97
7297;BME280;40758;54.038;11.684;2022-08-03T02:15:06;101180.13;;;17.17;89.38
7297;BME280;40758;54.038;11.684;2022-08-03T02:17:43;101174.84;;;17.16;90.38
7297;BME280;40758;54.038;11.684;2022-08-03T02:20:15;101179.44;;;17.15;90.12
7297;BME280;40758;54.038;11.684;2022-08-03T02:22:46;101174.84;;;17.16;88.92
7297;BME280;40758;54.038;11.684;2022-08-03T02:25:16;101178.09;;;17.19;88.38
7297;BME280;40758;54.038;11.684;2022-08-03T02:27:50;101169.47;;;17.24;88.32
7297;BME280;40758;54.038;11.684;2022-08-03T02:30:20;101170.31;;;17.24;88.95
7297;BME280;40758;54.038;11.684;2022-08-03T02:32:55;101174.03;;;17.23;89.69
7297;BME280;40758;54.038;11.684;2022-08-03T02:35:28;101167.31;;;17.27;88.56
7297;BME280;40758;54.038;11.684;2022-08-03T02:38:03;101162.09;;;17.34;87.78
7297;BME280;40758;54.038;11.684;2022-08-03T02:40:35;101156.81;;;17.32;89.00
7297;BME280;40758;54.038;11.684;2022-08-03T02:43:17;101155.25;;;17.30;88.78
7297;BME280;40758;54.038;11.684;2022-08-03T02:45:50;101159.16;;;17.27;88.51
7297;BME280;40758;54.038;11.684;2022-08-03T02:48:29;101162.03;;;17.26;88.06
7297;BME280;40758;54.038;11.684;2022-08-03T02:51:03;101160.84;;;17.28;89.03
7297;BME280;40758;54.038;11.684;2022-08-03T02:53:36;101160.84;;;17.28;90.20
7297;BME280;40758;54.038;11.684;2022-08-03T02:56:12;101154.38;;;17.21;90.62
7297;BME280;40758;54.038;11.684;2022-08-03T02:58:44;101159.25;;;17.18;90.47
7297;BME280;40758;54.038;11.684;2022-08-03T03:01:21;101161.25;;;17.16;91.68
7297;BME280;40758;54.038;11.684;2022-08-03T03:03:56;101152.66;;;17.20;91.63
7297;BME280;40758;54.038;11.684;2022-08-03T03:06:28;101156.81;;;17.32;89.85
7297;BME280;40758;54.038;11.684;2022-08-03T03:08:59;101157.16;;;17.37;90.49
7297;BME280;40758;54.038;11.684;2022-08-03T03:11:30;101155.81;;;17.42;89.26
7297;BME280;40758;54.038;11.684;2022-08-03T03:14:03;101158.59;;;17.50;87.12
7297;BME280;40758;54.038;11.684;2022-08-03T03:16:38;101162.69;;;17.54;87.27
7297;BME280;40758;54.038;11.684;2022-08-03T03:19:23;101154.53;;;17.54;87.78
7297;BME280;40758;54.038;11.684;2022-08-03T03:21:54;101158.59;;;17.50;88.77
7297;BME280;40758;54.038;11.684;2022-08-03T03:24:25;101159.53;;;17.40;92.83
7297;BME280;40758;54.038;11.684;2022-08-03T03:26:56;101160.84;;;17.28;95.53
7297;BME280;40758;54.038;11.684;2022-08-03T03:29:27;101168.59;;;17.15;98.01
7297;BME280;40758;54.038;11.684;2022-08-03T03:32:06;101165.81;;;17.07;99.30
7297;BME280;40758;54.038;11.684;2022-08-03T03:34:37;101163.88;;;16.99;98.75
7297;BME280;40758;54.038;11.684;2022-08-03T03:37:10;101159.44;;;16.98;98.77
7297;BME280;40758;54.038;11.684;2022-08-03T03:39:40;101162.72;;;17.02;98.50
7297;BME280;40758;54.038;11.684;2022-08-03T03:42:09;101166.66;;;17.08;98.70
7297;BME280;40758;54.038;11.684;2022-08-03T03:44:38;101159.41;;;17.16;99.65
7297;BME280;40758;54.038;11.684;2022-08-03T03:47:10;101164.03;;;17.24;99.19
7297;BME280;40758;54.038;11.684;2022-08-03T03:49:46;101170.59;;;17.39;95.53
7297;BME280;40758;54.038;11.684;2022-08-03T03:52:19;101165.09;;;17.57;94.26
7297;BME280;40758;54.038;11.684;2022-08-03T03:54:51;101160.75;;;17.72;94.13
7297;BME280;40758;54.038;11.684;2022-08-03T03:57:27;101155.09;;;17.99;87.88
7297;BME280;40758;54.038;11.684;2022-08-03T03:59:57;101160.94;;;18.29;82.85
7297;BME280;40758;54.038;11.684;2022-08-03T04:02:28;101154.88;;;18.51;84.86
7297;BME280;40758;54.038;11.684;2022-08-03T04:04:58;101159.34;;;18.68;82.61
7297;BME280;40758;54.038;11.684;2022-08-03T04:07:55;101153.56;;;18.87;80.81
7297;BME280;40758;54.038;11.684;2022-08-03T04:10:55;101149.78;;;19.13;76.99
7297;BME280;40758;54.038;11.684;2022-08-03T04:13:34;101152.09;;;19.40;75.12
7297;BME280;40758;54.038;11.684;2022-08-03T04:16:08;101150.38;;;19.55;74.83
7297;BME280;40758;54.038;11.684;2022-08-03T04:18:43;101160.03;;;19.74;72.41
7297;BME280;40758;54.038;11.684;2022-08-03T04:21:20;101156.03;;;19.93;70.85
7297;BME280;40758;54.038;11.684;2022-08-03T04:23:58;101158.19;;;20.05;70.96
7297;BME280;40758;54.038;11.684;2022-08-03T04:26:32;101158.09;;;20.13;69.83
7297;BME280;40758;54.038;11.684;2022-08-03T04:29:05;101159.25;;;20.19;69.38
7297;BME280;40758;54.038;11.684;2022-08-03T04:31:39;101158.88;;;20.30;68.57
7297;BME280;40758;54.038;11.684;2022-08-03T04:34:09;101152.34;;;20.39;67.78
7297;BME280;40758;54.038;11.684;2022-08-03T04:36:53;101149.63;;;20.39;67.73
7297;BME280;40758;54.038;11.684;2022-08-03T04:39:27;101158.53;;;20.33;67.59
7297;BME280;40758;54.038;11.684;2022-08-03T04:42:05;101165.22;;;20.23;68.07
7297;BME280;40758;54.038;11.684;2022-08-03T04:44:39;101159.69;;;20.08;69.34
7297;BME280;40758;54.038;11.684;2022-08-03T04:47:09;101160.38;;;20.02;69.11
7297;BME280;40758;54.038;11.684;2022-08-03T04:49:43;101159.19;;;20.04;69.26
7297;BME280;40758;54.038;11.684;2022-08-03T04:52:14;101162.78;;;20.05;68.76
7297;BME280;40758;54.038;11.684;2022-08-03T04:54:45;101162.41;;;20.08;68.77
7297;BME280;40758;54.038;11.684;2022-08-03T04:57:20;101168.88;;;20.07;69.37
7297;BME280;40758;54.038;11.684;2022-08-03T04:59:53;101174.69;;;20.12;68.57
7297;BME280;40758;54.038;11.684;2022-08-03T05:02:29;101170.56;;;20.16;69.26
7297;BME280;40758;54.038;11.684;2022-08-03T05:05:01;101167.78;;;20.24;68.67
7297;BME280;40758;54.038;11.684;2022-08-03T05:07:31;101174.56;;;20.28;68.78
7297;BME280;40758;54.038;11.684;2022-08-03T05:10:05;101170.47;;;20.32;68.97
7297;BME280;40758;54.038;11.684;2022-08-03T05:12:42;101164.97;;;20.40;68.83
7297;BME280;40758;54.038;11.684;2022-08-03T05:15:12;101169.31;;;20.49;68.30
7297;BME280;40758;54.038;11.684;2022-08-03T05:17:43;101169.28;;;20.57;68.31
7297;BME280;40758;54.038;11.684;2022-08-03T05:20:12;101172.09;;;20.72;67.88
7297;BME280;40758;54.038;11.684;2022-08-03T05:22:47;101169.59;;;20.85;67.27
7297;BME280;40758;54.038;11.684;2022-08-03T05:25:19;101172.00;;;21.03;67.01
7297;BME280;40758;54.038;11.684;2022-08-03T05:27:54;101170.84;;;21.50;65.83
7297;BME280;40758;54.038;11.684;2022-08-03T05:30:22;101169.41;;;22.48;64.01
7297;BME280;40758;54.038;11.684;2022-08-03T05:33:02;101174.78;;;23.96;58.00
7297;BME280;40758;54.038;11.684;2022-08-03T05:35:32;101170.47;;;25.02;54.92
7297;BME280;40758;54.038;11.684;2022-08-03T05:38:24;101174.13;;;25.99;51.66
7297;BME280;40758;54.038;11.684;2022-08-03T05:41:04;101168.81;;;26.49;50.14
7297;BME280;40758;54.038;11.684;2022-08-03T05:43:51;101175.84;;;27.08;49.03
7297;BME280;40758;54.038;11.684;2022-08-03T05:46:21;101176.22;;;27.61;47.17
7297;BME280;40758;54.038;11.684;2022-08-03T05:48:51;101172.09;;;28.06;46.45
7297;BME280;40758;54.038;11.684;2022-08-03T05:51:22;101176.13;;;28.04;45.57
7297;BME280;40758;54.038;11.684;2022-08-03T05:53:52;101177.25;;;28.81;44.82
7297;BME280;40758;54.038;11.684;2022-08-03T05:56:22;101169.19;;;28.79;44.32
7297;BME280;40758;54.038;11.684;2022-08-03T05:58:52;101171.25;;;28.95;43.56
7297;BME280;40758;54.038;11.684;2022-08-03T06:01:21;101168.16;;;29.15;43.13
7297;BME280;40758;54.038;11.684;2022-08-03T06:03:53;101172.06;;;29.38;42.14
7297;BME280;40758;54.038;11.684;2022-08-03T06:06:22;101177.34;;;29.74;41.78
7297;BME280;40758;54.038;11.684;2022-08-03T06:09:00;101173.97;;;29.72;42.06
7297;BME280;40758;54.038;11.684;2022-08-03T06:11:28;101174.56;;;29.86;42.13
7297;BME280;40758;54.038;11.684;2022-08-03T06:13:57;101165.91;;;30.22;41.75
7297;BME280;40758;54.038;11.684;2022-08-03T06:16:26;101170.72;;;30.27;40.45
7297;BME280;40758;54.038;11.684;2022-08-03T06:18:55;101174.19;;;30.34;41.18
7297;BME280;40758;54.038;11.684;2022-08-03T06:21:25;101168.63;;;30.90;39.86
7297;BME280;40758;54.038;11.684;2022-08-03T06:23:54;101172.97;;;30.70;40.30
7297;BME280;40758;54.038;11.684;2022-08-03T06:26:26;101169.00;;;31.27;39.92
7297;BME280;40758;54.038;11.684;2022-08-03T06:28:56;101169.91;;;31.88;38.62
7297;BME280;40758;54.038;11.684;2022-08-03T06:31:26;101181.72;;;31.79;38.84
7297;BME280;40758;54.038;11.684;2022-08-03T06:34:01;101179.34;;;32.09;38.30
7297;BME280;40758;54.038;11.684;2022-08-03T06:36:51;101175.22;;;31.90;38.39
7297;BME280;40758;54.038;11.684;2022-08-03T06:39:28;101176.94;;;31.74;38.23
7297;BME280;40758;54.038;11.684;2022-08-03T06:41:59;101182.88;;;32.04;38.70
7297;BME280;40758;54.038;11.684;2022-08-03T06:44:29;101182.97;;;32.31;38.97
7297;BME280;40758;54.038;11.684;2022-08-03T06:46:58;101179.03;;;32.76;37.72
7297;BME280;40758;54.038;11.684;2022-08-03T06:49:26;101172.97;;;32.84;38.26
7297;BME280;40758;54.038;11.684;2022-08-03T06:51:57;101164.88;;;32.56;36.93
7297;BME280;40758;54.038;11.684;2022-08-03T06:54:46;101171.56;;;31.51;38.95
7297;BME280;40758;54.038;11.684;2022-08-03T06:57:17;101177.09;;;32.54;38.40
7297;BME280;40758;54.038;11.684;2022-08-03T06:59:46;101179.81;;;33.03;37.15
7297;BME280;40758;54.038;11.684;2022-08-03T07:02:35;101173.28;;;32.34;37.90
7297;BME280;40758;54.038;11.684;2022-08-03T07:05:08;101172.97;;;32.84;37.95
7297;BME280;40758;54.038;11.684;2022-08-03T07:07:37;101174.91;;;33.89;35.75
7297;BME280;40758;54.038;11.684;2022-08-03T07:10:08;101172.34;;;33.83;35.63
7297;BME280;40758;54.038;11.684;2022-08-03T07:12:39;101168.84;;;32.86;36.38
7297;BME280;40758;54.038;11.684;2022-08-03T07:15:22;101182.44;;;33.15;36.46
7297;BME280;40758;54.038;11.684;2022-08-03T07:18:12;101182.63;;;33.72;36.04
7297;BME280;40758;54.038;11.684;2022-08-03T07:20:44;101189.88;;;34.25;36.02
7297;BME280;40758;54.038;11.684;2022-08-03T07:23:12;101178.59;;;34.82;34.80
7297;BME280;40758;54.038;11.684;2022-08-03T07:25:45;101180.53;;;33.94;35.24
7297;BME280;40758;54.038;11.684;2022-08-03T07:28:16;101184.66;;;33.13;36.16
7297;BME280;40758;54.038;11.684;2022-08-03T07:30:46;101185.41;;;33.35;36.50
7297;BME280;40758;54.038;11.684;2022-08-03T07:33:15;101188.84;;;33.89;35.55
7297;BME280;40758;54.038;11.684;2022-08-03T07:35:47;101190.91;;;33.62;35.71
7297;BME280;40758;54.038;11.684;2022-08-03T07:38:16;101181.28;;;34.47;36.38
7297;BME280;40758;54.038;11.684;2022-08-03T07:40:47;101191.91;;;34.55;34.27
7297;BME280;40758;54.038;11.684;2022-08-03T07:43:18;101179.34;;;34.42;34.96
7297;BME280;40758;54.038;11.684;2022-08-03T07:45:48;101185.16;;;34.36;33.85
7297;BME280;40758;54.038;11.684;2022-08-03T07:48:18;101184.22;;;34.20;34.68
7297;BME280;40758;54.038;11.684;2022-08-03T07:50:48;101186.94;;;34.72;34.34
7297;BME280;40758;54.038;11.684;2022-08-03T07:53:17;101185.31;;;34.92;34.05
7297;BME280;40758;54.038;11.684;2022-08-03T07:55:51;101186.44;;;35.36;33.75
7297;BME280;40758;54.038;11.684;2022-08-03T07:58:22;101180.25;;;35.59;33.67
7297;BME280;40758;54.038;11.684;2022-08-03T08:00:55;101194.97;;;34.54;34.52
7297;BME280;40758;54.038;11.684;2022-08-03T08:03:27;101183.63;;;34.90;34.37
7297;BME280;40758;54.038;11.684;2022-08-03T08:06:16;101187.72;;;34.63;34.50
7297;BME280;40758;54.038;11.684;2022-08-03T08:08:46;101186.72;;;33.22;36.42
7297;BME280;40758;54.038;11.684;2022-08-03T08:11:18;101186.16;;;32.40;37.39
7297;BME280;40758;54.038;11.684;2022-08-03T08:13:50;101178.16;;;32.70;38.39
7297;BME280;40758;54.038;11.684;2022-08-03T08:16:18;101182.03;;;32.21;37.93
7297;BME280;40758;54.038;11.684;2022-08-03T08:18:47;101187.59;;;32.04;38.10
7297;BME280;40758;54.038;11.684;2022-08-03T08:21:17;101180.88;;;31.78;38.28
7297;BME280;40758;54.038;11.684;2022-08-03T08:23:47;101180.59;;;33.20;37.54
7297;BME280;40758;54.038;11.684;2022-08-03T08:26:24;101171.41;;;33.67;36.66
7297;BME280;40758;54.038;11.684;2022-08-03T08:28:54;101179.53;;;32.46;37.67
7297;BME280;40758;54.038;11.684;2022-08-03T08:31:23;101177.84;;;31.80;38.57
7297;BME280;40758;54.038;11.684;2022-08-03T08:33:52;101170.41;;;30.51;40.83
7297;BME280;40758;54.038;11.684;2022-08-03T08:36:31;101171.72;;;30.94;40.31
7297;BME280;40758;54.038;11.684;2022-08-03T08:39:01;101165.66;;;32.02;38.72
7297;BME280;40758;54.038;11.684;2022-08-03T08:41:30;101156.22;;;33.43;37.48
7297;BME280;40758;54.038;11.684;2022-08-03T08:44:05;101160.97;;;34.67;35.93
7297;BME280;40758;54.038;11.684;2022-08-03T08:46:38;101159.88;;;35.08;33.83
7297;BME280;40758;54.038;11.684;2022-08-03T08:49:09;101165.34;;;34.32;34.54
7297;BME280;40758;54.038;11.684;2022-08-03T08:51:42;101160.13;;;32.78;36.62
7297;BME280;40758;54.038;11.684;2022-08-03T08:54:30;101156.75;;;33.40;36.63
7297;BME280;40758;54.038;11.684;2022-08-03T08:57:03;101169.69;;;34.08;36.34
7297;BME280;40758;54.038;11.684;2022-08-03T08:59:56;101174.41;;;34.95;34.95
7297;BME280;40758;54.038;11.684;2022-08-03T09:02:29;101157.97;;;33.59;36.04
7297;BME280;40758;54.038;11.684;2022-08-03T09:05:02;101157.31;;;34.61;34.50
7297;BME280;40758;54.038;11.684;2022-08-03T09:07:34;101176.22;;;34.34;34.47
7297;BME280;40758;54.038;11.684;2022-08-03T09:10:04;101165.38;;;34.42;34.32
7297;BME280;40758;54.038;11.684;2022-08-03T09:12:44;101162.72;;;34.10;34.60
7297;BME280;40758;54.038;11.684;2022-08-03T09:15:22;101163.25;;;35.36;33.63
7297;BME280;40758;54.038;11.684;2022-08-03T09:17:54;101164.09;;;35.36;32.30
7297;BME280;40758;54.038;11.684;2022-08-03T09:20:29;101166.09;;;36.15;32.34
7297;BME280;40758;54.038;11.684;2022-08-03T09:23:01;101160.22;;;36.22;33.14
7297;BME280;40758;54.038;11.684;2022-08-03T09:25:57;101157.31;;;35.62;31.95
7297;BME280;40758;54.038;11.684;2022-08-03T09:28:34;101160.19;;;34.86;33.54
7297;BME280;40758;54.038;11.684;2022-08-03T09:31:32;101169.03;;;34.63;36.04
7297;BME280;40758;54.038;11.684;2022-08-03T09:34:05;101154.28;;;35.18;32.20
7297;BME280;40758;54.038;11.684;2022-08-03T09:36:37;101162.69;;;35.08;34.28
7297;BME280;40758;54.038;11.684;2022-08-03T09:39:08;101151.16;;;34.44;33.21
7297;BME280;40758;54.038;11.684;2022-08-03T09:41:44;101150.63;;;33.06;34.13
7297;BME280;40758;54.038;11.684;2022-08-03T09:44:15;101158.94;;;33.01;35.83
7297;BME280;40758;54.038;11.684;2022-08-03T09:46:54;101154.50;;;33.37;36.00
7297;BME280;40758;54.038;11.684;2022-08-03T09:49:26;101157.09;;;33.95;36.37
7297;BME280;40758;54.038;11.684;2022-08-03T09:51:56;101146.66;;;34.33;34.51
7297;BME280;40758;54.038;11.684;2022-08-03T09:54:51;101155.69;;;34.90;33.69
7297;BME280;40758;54.038;11.684;2022-08-03T09:57:22;101153.75;;;35.11;33.17
7297;BME280;40758;54.038;11.684;2022-08-03T09:59:53;101138.91;;;34.50;33.25
7297;BME280;40758;54.038;11.684;2022-08-03T10:02:35;101156.81;;;35.15;32.71
7297;BME280;40758;54.038;11.684;2022-08-03T10:05:09;101138.66;;;35.33;32.64
7297;BME280;40758;54.038;11.684;2022-08-03T10:07:48;101137.25;;;35.40;33.34
7297;BME280;40758;54.038;11.684;2022-08-03T10:10:18;101139.78;;;35.37;32.36
7297;BME280;40758;54.038;11.684;2022-08-03T10:12:59;101137.81;;;35.07;32.95
7297;BME280;40758;54.038;11.684;2022-08-03T10:15:28;101140.47;;;34.21;35.16
7297;BME280;40758;54.038;11.684;2022-08-03T10:18:19;101136.72;;;34.98;33.76
7297;BME280;40758;54.038;11.684;2022-08-03T10:20:51;101141.19;;;34.99;32.65
7297;BME280;40758;54.038;11.684;2022-08-03T10:23:21;101130.28;;;35.02;33.21
7297;BME280;40758;54.038;11.684;2022-08-03T10:25:57;101131.16;;;34.93;33.75
7297;BME280;40758;54.038;11.684;2022-08-03T10:28:34;101135.53;;;34.58;34.69
7297;BME280;40758;54.038;11.684;2022-08-03T10:31:16;101132.22;;;34.61;35.56
7297;BME280;40758;54.038;11.684;2022-08-03T10:33:58;101132.19;;;34.46;33.81
7297;BME280;40758;54.038;11.684;2022-08-03T10:36:33;101116.25;;;33.69;34.89
7297;BME280;40758;54.038;11.684;2022-08-03T10:39:05;101123.94;;;33.10;36.80
7297;BME280;40758;54.038;11.684;2022-08-03T10:41:47;101114.84;;;32.61;37.00
7297;BME280;40758;54.038;11.684;2022-08-03T10:44:25;101116.88;;;32.38;37.63
7297;BME280;40758;54.038;11.684;2022-08-03T10:46:59;101115.91;;;32.54;37.51
7297;BME280;40758;54.038;11.684;2022-08-03T10:49:31;101110.81;;;33.05;38.65
7297;BME280;40758;54.038;11.684;2022-08-03T10:52:04;101107.34;;;33.20;36.07
7297;BME280;40758;54.038;11.684;2022-08-03T10:54:54;101120.47;;;33.24;37.07
7297;BME280;40758;54.038;11.684;2022-08-03T10:57:49;101115.78;;;32.98;36.65
7297;BME280;40758;54.038;11.684;2022-08-03T11:00:27;101114.91;;;33.71;35.78
7297;BME280;40758;54.038;11.684;2022-08-03T11:03:15;101100.13;;;33.24;35.50
7297;BME280;40758;54.038;11.684;2022-08-03T11:05:48;101114.22;;;34.11;36.86
7297;BME280;40758;54.038;11.684;2022-08-03T11:08:25;101122.97;;;34.30;35.03
7297;BME280;40758;54.038;11.684;2022-08-03T11:10:58;101111.94;;;33.09;37.24
7297;BME280;40758;54.038;11.684;2022-08-03T11:13:30;101111.19;;;32.55;37.85
7297;BME280;40758;54.038;11.684;2022-08-03T11:16:18;101111.84;;;32.94;37.40
7297;BME280;40758;54.038;11.684;2022-08-03T11:19:03;101104.91;;;33.33;37.46
7297;BME280;40758;54.038;11.684;2022-08-03T11:21:56;101101.50;;;33.21;37.11
7297;BME280;40758;54.038;11.684;2022-08-03T11:24:58;101097.91;;;32.89;37.77
7297;BME280;40758;54.038;11.684;2022-08-03T11:27:34;101085.13;;;32.93;38.41
7297;BME280;40758;54.038;11.684;2022-08-03T11:30:08;101106.81;;;32.91;39.25
7297;BME280;40758;54.038;11.684;2022-08-03T11:32:56;101094.59;;;32.65;38.23
7297;BME280;40758;54.038;11.684;2022-08-03T11:35:28;101100.31;;;32.53;38.20
7297;BME280;40758;54.038;11.684;2022-08-03T11:38:10;101098.47;;;32.32;38.31
7297;BME280;40758;54.038;11.684;2022-08-03T11:40:44;101109.69;;;33.01;36.75
7297;BME280;40758;54.038;11.684;2022-08-03T11:43:44;101104.88;;;33.28;35.67
7297;BME280;40758;54.038;11.684;2022-08-03T11:46:15;101110.75;;;32.95;37.15
7297;BME280;40758;54.038;11.684;2022-08-03T11:49:04;101111.19;;;33.14;38.75
7297;BME280;40758;54.038;11.684;2022-08-03T11:51:42;101098.34;;;33.55;36.24
7297;BME280;40758;54.038;11.684;2022-08-03T11:54:12;101087.13;;;33.03;35.75
7297;BME280;40758;54.038;11.684;2022-08-03T11:56:46;101090.75;;;33.03;36.69
7297;BME280;40758;54.038;11.684;2022-08-03T11:59:16;101097.78;;;33.58;36.30
7297;BME280;40758;54.038;11.684;2022-08-03T12:01:49;101106.06;;;33.38;35.11
7297;BME280;40758;54.038;11.684;2022-08-03T12:04:18;101103.53;;;32.99;35.31
7297;BME280;40758;54.038;11.684;2022-08-03T12:07:00;101098.00;;;33.04;36.15
7297;BME280;40758;54.038;11.684;2022-08-03T12:09:32;101093.81;;;33.39;35.25
7297;BME280;40758;54.038;11.684;2022-08-03T12:12:09;101100.03;;;33.56;34.85
7297;BME280;40758;54.038;11.684;2022-08-03T12:14:55;101088.22;;;33.91;34.61
7297;BME280;40758;54.038;11.684;2022-08-03T12:17:32;101100.31;;;33.59;34.39
7297;BME280;40758;54.038;11.684;2022-08-03T12:20:04;101098.91;;;33.15;35.06
7297;BME280;40758;54.038;11.684;2022-08-03T12:22:38;101095.75;;;33.90;35.43
7297;BME280;40758;54.038;11.684;2022-08-03T12:25:21;101101.97;;;34.18;35.72
7297;BME280;40758;54.038;11.684;2022-08-03T12:28:14;101093.66;;;34.28;35.34
7297;BME280;40758;54.038;11.684;2022-08-03T12:31:05;101086.47;;;34.72;34.05
7297;BME280;40758;54.038;11.684;2022-08-03T12:33:55;101096.25;;;34.85;33.92
7297;BME280;40758;54.038;11.684;2022-08-03T12:36:26;101085.34;;;34.68;33.18
7297;BME280;40758;54.038;11.684;2022-08-03T12:38:57;101078.06;;;34.52;34.66
7297;BME280;40758;54.038;11.684;2022-08-03T12:41:32;101086.69;;;34.25;34.31
7297;BME280;40758;54.038;11.684;2022-08-03T12:44:02;101095.59;;;33.60;35.76
7297;BME280;40758;54.038;11.684;2022-08-03T12:46:34;101101.25;;;33.70;36.38
7297;BME280;40758;54.038;11.684;2022-08-03T12:49:07;101090.78;;;34.07;35.38
7297;BME280;40758;54.038;11.684;2022-08-03T12:51:55;101093.13;;;34.36;35.63
7297;BME280;40758;54.038;11.684;2022-08-03T12:54:26;101089.56;;;33.78;35.77
7297;BME280;40758;54.038;11.684;2022-08-03T12:57:01;101087.72;;;34.09;35.15
7297;BME280;40758;54.038;11.684;2022-08-03T12:59:32;101096.47;;;34.63;35.46
7297;BME280;40758;54.038;11.684;2022-08-03T13:02:15;101087.53;;;34.36;35.91
7297;BME280;40758;54.038;11.684;2022-08-03T13:04:47;101088.69;;;34.50;34.89
7297;BME280;40758;54.038;11.684;2022-08-03T13:07:17;101082.81;;;34.67;33.71
7297;BME280;40758;54.038;11.684;2022-08-03T13:09:50;101085.03;;;34.44;36.06
7297;BME280;40758;54.038;11.684;2022-08-03T13:12:22;101086.06;;;34.13;35.17
7297;BME280;40758;54.038;11.684;2022-08-03T13:14:54;101092.88;;;34.68;34.82
7297;BME280;40758;54.038;11.684;2022-08-03T13:17:24;101084.78;;;34.81;34.68
7297;BME280;40758;54.038;11.684;2022-08-03T13:19:53;101078.63;;;34.44;34.76
7297;BME280;40758;54.038;11.684;2022-08-03T13:22:26;101089.84;;;34.74;34.92
7297;BME280;40758;54.038;11.684;2022-08-03T13:24:56;101086.44;;;35.13;35.20
7297;BME280;40758;54.038;11.684;2022-08-03T13:27:30;101070.84;;;34.92;34.31
7297;BME280;40758;54.038;11.684;2022-08-03T13:30:19;101083.06;;;34.30;34.91
7297;BME280;40758;54.038;11.684;2022-08-03T13:32:56;101093.72;;;34.68;35.21